Aviation Digital Data Service (ADDS)

Output produced by TAFs form (2154 UTC 25 November 2014)
found at http://aviationweather.gov/adds/tafs/
 
KCNM 251721Z 2518/2618 24010KT P6SM FEW250 
     FM260000 25007KT P6SM SKC 
     FM261400 33005KT P6SM SKC